sensor_id;sensor_type;location;lat;lon;timestamp;P1;durP1;ratioP1;P2;durP2;ratioP2
36257;SDS011;22294;52.044;4.582;2022-11-06T00:00:03;10.73;;;4.18;;
36257;SDS011;22294;52.044;4.582;2022-11-06T00:02:30;12.90;;;4.72;;
36257;SDS011;22294;52.044;4.582;2022-11-06T00:04:55;10.38;;;4.80;;
36257;SDS011;22294;52.044;4.582;2022-11-06T00:07:40;10.57;;;4.05;;
36257;SDS011;22294;52.044;4.582;2022-11-06T00:10:10;16.60;;;4.82;;
36257;SDS011;22294;52.044;4.582;2022-11-06T00:12:35;13.35;;;5.10;;
36257;SDS011;22294;52.044;4.582;2022-11-06T00:15:00;12.18;;;4.50;;
36257;SDS011;22294;52.044;4.582;2022-11-06T00:17:26;11.65;;;4.65;;
36257;SDS011;22294;52.044;4.582;2022-11-06T00:19:51;10.73;;;4.00;;
36257;SDS011;22294;52.044;4.582;2022-11-06T00:22:16;8.50;;;3.90;;
36257;SDS011;22294;52.044;4.582;2022-11-06T00:24:41;9.73;;;3.90;;
36257;SDS011;22294;52.044;4.582;2022-11-06T00:27:07;12.07;;;3.95;;
36257;SDS011;22294;52.044;4.582;2022-11-06T00:29:32;12.18;;;4.80;;
36257;SDS011;22294;52.044;4.582;2022-11-06T00:31:57;13.02;;;4.55;;
36257;SDS011;22294;52.044;4.582;2022-11-06T00:34:23;13.50;;;4.55;;
36257;SDS011;22294;52.044;4.582;2022-11-06T00:36:48;8.85;;;3.83;;
36257;SDS011;22294;52.044;4.582;2022-11-06T00:39:13;14.27;;;5.32;;
36257;SDS011;22294;52.044;4.582;2022-11-06T00:41:39;11.50;;;4.75;;
36257;SDS011;22294;52.044;4.582;2022-11-06T00:44:04;10.98;;;4.40;;
36257;SDS011;22294;52.044;4.582;2022-11-06T00:46:29;13.95;;;4.47;;
36257;SDS011;22294;52.044;4.582;2022-11-06T00:48:55;11.90;;;3.80;;
36257;SDS011;22294;52.044;4.582;2022-11-06T00:51:22;10.88;;;4.38;;
36257;SDS011;22294;52.044;4.582;2022-11-06T00:53:54;12.55;;;4.18;;
36257;SDS011;22294;52.044;4.582;2022-11-06T00:56:23;13.55;;;4.38;;
36257;SDS011;22294;52.044;4.582;2022-11-06T00:58:49;9.55;;;4.07;;
36257;SDS011;22294;52.044;4.582;2022-11-06T01:01:16;10.30;;;4.32;;
36257;SDS011;22294;52.044;4.582;2022-11-06T01:03:47;14.43;;;4.95;;
36257;SDS011;22294;52.044;4.582;2022-11-06T01:06:18;9.35;;;4.60;;
36257;SDS011;22294;52.044;4.582;2022-11-06T01:08:45;12.18;;;4.68;;
36257;SDS011;22294;52.044;4.582;2022-11-06T01:11:15;8.55;;;4.45;;
36257;SDS011;22294;52.044;4.582;2022-11-06T01:13:47;13.00;;;4.80;;
36257;SDS011;22294;52.044;4.582;2022-11-06T01:16:14;12.90;;;4.90;;
36257;SDS011;22294;52.044;4.582;2022-11-06T01:18:40;11.57;;;5.10;;
36257;SDS011;22294;52.044;4.582;2022-11-06T01:21:10;11.95;;;4.55;;
36257;SDS011;22294;52.044;4.582;2022-11-06T01:23:37;12.55;;;4.45;;
36257;SDS011;22294;52.044;4.582;2022-11-06T01:26:04;13.30;;;4.78;;
36257;SDS011;22294;52.044;4.582;2022-11-06T01:28:32;12.98;;;4.40;;
36257;SDS011;22294;52.044;4.582;2022-11-06T01:31:02;9.27;;;4.25;;
36257;SDS011;22294;52.044;4.582;2022-11-06T01:33:32;15.95;;;4.75;;
36257;SDS011;22294;52.044;4.582;2022-11-06T01:35:58;12.65;;;4.60;;
36257;SDS011;22294;52.044;4.582;2022-11-06T01:38:23;14.65;;;4.30;;
36257;SDS011;22294;52.044;4.582;2022-11-06T01:40:49;10.57;;;4.57;;
36257;SDS011;22294;52.044;4.582;2022-11-06T01:43:15;10.18;;;4.03;;
36257;SDS011;22294;52.044;4.582;2022-11-06T01:46:01;11.85;;;4.40;;
36257;SDS011;22294;52.044;4.582;2022-11-06T01:48:26;10.07;;;4.20;;
36257;SDS011;22294;52.044;4.582;2022-11-06T01:50:53;10.18;;;4.40;;
36257;SDS011;22294;52.044;4.582;2022-11-06T01:53:20;8.57;;;4.40;;
36257;SDS011;22294;52.044;4.582;2022-11-06T01:55:49;14.95;;;4.68;;
36257;SDS011;22294;52.044;4.582;2022-11-06T01:58:18;9.15;;;4.45;;
36257;SDS011;22294;52.044;4.582;2022-11-06T02:00:46;10.50;;;3.97;;
36257;SDS011;22294;52.044;4.582;2022-11-06T02:03:13;10.57;;;4.38;;
36257;SDS011;22294;52.044;4.582;2022-11-06T02:05:39;12.45;;;4.68;;
36257;SDS011;22294;52.044;4.582;2022-11-06T02:08:05;11.18;;;4.93;;
36257;SDS011;22294;52.044;4.582;2022-11-06T02:10:33;12.02;;;4.40;;
36257;SDS011;22294;52.044;4.582;2022-11-06T02:13:02;13.50;;;4.18;;
36257;SDS011;22294;52.044;4.582;2022-11-06T02:24:29;14.88;;;4.70;;
36257;SDS011;22294;52.044;4.582;2022-11-06T02:29:44;11.70;;;5.28;;
36257;SDS011;22294;52.044;4.582;2022-11-06T02:32:16;13.45;;;5.07;;
36257;SDS011;22294;52.044;4.582;2022-11-06T02:34:46;12.35;;;5.18;;
36257;SDS011;22294;52.044;4.582;2022-11-06T02:37:16;13.43;;;5.30;;
36257;SDS011;22294;52.044;4.582;2022-11-06T02:39:47;17.45;;;6.03;;
36257;SDS011;22294;52.044;4.582;2022-11-06T02:42:15;14.30;;;5.72;;
36257;SDS011;22294;52.044;4.582;2022-11-06T02:44:43;15.15;;;6.00;;
36257;SDS011;22294;52.044;4.582;2022-11-06T02:47:12;12.55;;;5.72;;
36257;SDS011;22294;52.044;4.582;2022-11-06T02:52:09;13.65;;;5.65;;
36257;SDS011;22294;52.044;4.582;2022-11-06T02:54:39;15.23;;;6.50;;
36257;SDS011;22294;52.044;4.582;2022-11-06T02:57:09;18.08;;;6.75;;
36257;SDS011;22294;52.044;4.582;2022-11-06T03:02:23;12.63;;;6.10;;
36257;SDS011;22294;52.044;4.582;2022-11-06T03:04:54;13.07;;;6.03;;
36257;SDS011;22294;52.044;4.582;2022-11-06T03:07:27;12.90;;;6.10;;
36257;SDS011;22294;52.044;4.582;2022-11-06T03:10:00;18.33;;;6.53;;
36257;SDS011;22294;52.044;4.582;2022-11-06T03:15:42;12.60;;;6.35;;
36257;SDS011;22294;52.044;4.582;2022-11-06T03:18:17;17.40;;;6.88;;
36257;SDS011;22294;52.044;4.582;2022-11-06T03:21:00;15.52;;;6.60;;
36257;SDS011;22294;52.044;4.582;2022-11-06T03:26:00;11.93;;;7.00;;
36257;SDS011;22294;52.044;4.582;2022-11-06T03:29:11;16.90;;;7.90;;
36257;SDS011;22294;52.044;4.582;2022-11-06T03:31:47;11.98;;;6.20;;
36257;SDS011;22294;52.044;4.582;2022-11-06T03:34:21;14.60;;;6.82;;
36257;SDS011;22294;52.044;4.582;2022-11-06T03:36:53;12.30;;;6.13;;
36257;SDS011;22294;52.044;4.582;2022-11-06T03:39:27;15.20;;;6.95;;
36257;SDS011;22294;52.044;4.582;2022-11-06T03:42:01;14.32;;;7.25;;
36257;SDS011;22294;52.044;4.582;2022-11-06T03:44:30;14.02;;;7.60;;
36257;SDS011;22294;52.044;4.582;2022-11-06T03:47:04;14.98;;;7.50;;
36257;SDS011;22294;52.044;4.582;2022-11-06T03:49:53;17.02;;;7.80;;
36257;SDS011;22294;52.044;4.582;2022-11-06T03:52:43;15.02;;;7.82;;
36257;SDS011;22294;52.044;4.582;2022-11-06T03:55:15;13.07;;;7.50;;
36257;SDS011;22294;52.044;4.582;2022-11-06T03:57:53;14.07;;;7.43;;
36257;SDS011;22294;52.044;4.582;2022-11-06T04:00:26;24.42;;;8.35;;
36257;SDS011;22294;52.044;4.582;2022-11-06T04:02:56;12.65;;;7.57;;
36257;SDS011;22294;52.044;4.582;2022-11-06T04:05:32;14.53;;;7.50;;
36257;SDS011;22294;52.044;4.582;2022-11-06T04:08:01;14.35;;;7.63;;
36257;SDS011;22294;52.044;4.582;2022-11-06T04:10:46;12.55;;;6.57;;
36257;SDS011;22294;52.044;4.582;2022-11-06T04:13:33;16.25;;;6.72;;
36257;SDS011;22294;52.044;4.582;2022-11-06T04:16:20;15.80;;;6.22;;
36257;SDS011;22294;52.044;4.582;2022-11-06T04:18:47;18.95;;;6.22;;
36257;SDS011;22294;52.044;4.582;2022-11-06T04:21:23;13.10;;;5.60;;
36257;SDS011;22294;52.044;4.582;2022-11-06T04:35:36;16.73;;;5.72;;
36257;SDS011;22294;52.044;4.582;2022-11-06T04:38:12;11.80;;;5.93;;
36257;SDS011;22294;52.044;4.582;2022-11-06T04:41:18;10.48;;;5.13;;
36257;SDS011;22294;52.044;4.582;2022-11-06T04:43:58;12.30;;;5.65;;
36257;SDS011;22294;52.044;4.582;2022-11-06T04:47:10;13.45;;;5.22;;
36257;SDS011;22294;52.044;4.582;2022-11-06T04:49:18;8.57;;;4.75;;
36257;SDS011;22294;52.044;4.582;2022-11-06T04:51:45;9.73;;;5.10;;
36257;SDS011;22294;52.044;4.582;2022-11-06T04:54:11;10.75;;;5.20;;
36257;SDS011;22294;52.044;4.582;2022-11-06T04:56:37;12.48;;;5.38;;
36257;SDS011;22294;52.044;4.582;2022-11-06T04:59:03;9.57;;;5.07;;
36257;SDS011;22294;52.044;4.582;2022-11-06T05:01:29;10.93;;;4.85;;
36257;SDS011;22294;52.044;4.582;2022-11-06T05:03:55;11.48;;;4.63;;
36257;SDS011;22294;52.044;4.582;2022-11-06T05:06:20;10.50;;;4.72;;
36257;SDS011;22294;52.044;4.582;2022-11-06T05:08:46;7.75;;;4.70;;
36257;SDS011;22294;52.044;4.582;2022-11-06T05:11:11;6.43;;;4.05;;
36257;SDS011;22294;52.044;4.582;2022-11-06T05:13:36;10.88;;;4.45;;
36257;SDS011;22294;52.044;4.582;2022-11-06T05:16:02;12.68;;;4.70;;
36257;SDS011;22294;52.044;4.582;2022-11-06T05:18:29;11.38;;;3.92;;
36257;SDS011;22294;52.044;4.582;2022-11-06T05:20:57;10.98;;;4.68;;
36257;SDS011;22294;52.044;4.582;2022-11-06T05:23:42;12.77;;;4.32;;
36257;SDS011;22294;52.044;4.582;2022-11-06T05:26:07;11.75;;;4.50;;
36257;SDS011;22294;52.044;4.582;2022-11-06T05:28:33;10.50;;;4.18;;
36257;SDS011;22294;52.044;4.582;2022-11-06T05:30:58;9.95;;;4.30;;
36257;SDS011;22294;52.044;4.582;2022-11-06T05:33:24;10.90;;;3.78;;
36257;SDS011;22294;52.044;4.582;2022-11-06T05:35:50;7.80;;;3.78;;
36257;SDS011;22294;52.044;4.582;2022-11-06T05:38:16;9.80;;;3.95;;
36257;SDS011;22294;52.044;4.582;2022-11-06T05:40:41;10.13;;;3.40;;
36257;SDS011;22294;52.044;4.582;2022-11-06T05:43:06;8.18;;;3.42;;
36257;SDS011;22294;52.044;4.582;2022-11-06T05:45:32;12.10;;;3.65;;
36257;SDS011;22294;52.044;4.582;2022-11-06T05:47:57;9.77;;;3.72;;
36257;SDS011;22294;52.044;4.582;2022-11-06T05:50:22;9.73;;;3.50;;
36257;SDS011;22294;52.044;4.582;2022-11-06T05:52:48;9.07;;;3.65;;
36257;SDS011;22294;52.044;4.582;2022-11-06T05:55:13;10.88;;;3.45;;
36257;SDS011;22294;52.044;4.582;2022-11-06T05:57:38;7.25;;;3.42;;
36257;SDS011;22294;52.044;4.582;2022-11-06T06:00:04;6.68;;;3.47;;
36257;SDS011;22294;52.044;4.582;2022-11-06T06:02:30;15.35;;;4.15;;
36257;SDS011;22294;52.044;4.582;2022-11-06T06:04:56;8.15;;;3.33;;
36257;SDS011;22294;52.044;4.582;2022-11-06T06:07:21;6.28;;;3.78;;
36257;SDS011;22294;52.044;4.582;2022-11-06T06:09:46;8.13;;;3.45;;
36257;SDS011;22294;52.044;4.582;2022-11-06T06:12:12;7.00;;;3.85;;
36257;SDS011;22294;52.044;4.582;2022-11-06T06:14:38;7.43;;;3.42;;
36257;SDS011;22294;52.044;4.582;2022-11-06T06:17:04;8.63;;;3.63;;
36257;SDS011;22294;52.044;4.582;2022-11-06T06:19:29;6.97;;;3.60;;
36257;SDS011;22294;52.044;4.582;2022-11-06T06:21:54;7.20;;;3.45;;
36257;SDS011;22294;52.044;4.582;2022-11-06T06:24:20;10.73;;;4.35;;
36257;SDS011;22294;52.044;4.582;2022-11-06T06:26:45;11.45;;;3.45;;
36257;SDS011;22294;52.044;4.582;2022-11-06T06:29:10;6.10;;;3.50;;
36257;SDS011;22294;52.044;4.582;2022-11-06T06:31:35;7.93;;;3.13;;
36257;SDS011;22294;52.044;4.582;2022-11-06T06:34:01;7.57;;;3.60;;
36257;SDS011;22294;52.044;4.582;2022-11-06T06:36:26;8.20;;;3.67;;
36257;SDS011;22294;52.044;4.582;2022-11-06T06:38:51;10.65;;;3.47;;
36257;SDS011;22294;52.044;4.582;2022-11-06T06:41:17;7.05;;;3.15;;
36257;SDS011;22294;52.044;4.582;2022-11-06T06:43:42;10.43;;;4.00;;
36257;SDS011;22294;52.044;4.582;2022-11-06T06:46:07;9.02;;;3.63;;
36257;SDS011;22294;52.044;4.582;2022-11-06T06:48:34;10.18;;;3.85;;
36257;SDS011;22294;52.044;4.582;2022-11-06T06:50:59;11.05;;;3.10;;
36257;SDS011;22294;52.044;4.582;2022-11-06T06:53:26;9.60;;;3.70;;
36257;SDS011;22294;52.044;4.582;2022-11-06T06:55:51;10.88;;;3.30;;
36257;SDS011;22294;52.044;4.582;2022-11-06T06:58:16;9.65;;;3.25;;
36257;SDS011;22294;52.044;4.582;2022-11-06T07:00:42;10.13;;;3.17;;
36257;SDS011;22294;52.044;4.582;2022-11-06T07:03:07;12.23;;;2.97;;
36257;SDS011;22294;52.044;4.582;2022-11-06T07:05:33;5.30;;;3.08;;
36257;SDS011;22294;52.044;4.582;2022-11-06T07:08:00;7.50;;;3.03;;
36257;SDS011;22294;52.044;4.582;2022-11-06T07:10:25;8.60;;;3.00;;
36257;SDS011;22294;52.044;4.582;2022-11-06T07:12:50;10.95;;;3.30;;
36257;SDS011;22294;52.044;4.582;2022-11-06T07:15:15;9.85;;;2.67;;
36257;SDS011;22294;52.044;4.582;2022-11-06T07:17:41;6.35;;;2.58;;
36257;SDS011;22294;52.044;4.582;2022-11-06T07:20:07;5.75;;;2.90;;
36257;SDS011;22294;52.044;4.582;2022-11-06T07:22:33;9.95;;;2.90;;
36257;SDS011;22294;52.044;4.582;2022-11-06T07:24:58;10.27;;;3.10;;
36257;SDS011;22294;52.044;4.582;2022-11-06T07:27:24;6.88;;;2.25;;
36257;SDS011;22294;52.044;4.582;2022-11-06T07:29:50;10.05;;;2.65;;
36257;SDS011;22294;52.044;4.582;2022-11-06T07:32:15;9.88;;;3.28;;
36257;SDS011;22294;52.044;4.582;2022-11-06T07:34:40;8.27;;;2.00;;
36257;SDS011;22294;52.044;4.582;2022-11-06T07:37:06;8.75;;;2.53;;
36257;SDS011;22294;52.044;4.582;2022-11-06T07:39:32;7.18;;;2.33;;
36257;SDS011;22294;52.044;4.582;2022-11-06T07:41:57;6.50;;;2.08;;
36257;SDS011;22294;52.044;4.582;2022-11-06T07:44:22;7.70;;;2.00;;
36257;SDS011;22294;52.044;4.582;2022-11-06T07:46:48;9.25;;;2.78;;
36257;SDS011;22294;52.044;4.582;2022-11-06T07:49:13;8.57;;;2.35;;
36257;SDS011;22294;52.044;4.582;2022-11-06T07:51:40;8.80;;;2.42;;
36257;SDS011;22294;52.044;4.582;2022-11-06T07:54:06;5.93;;;1.60;;
36257;SDS011;22294;52.044;4.582;2022-11-06T07:56:31;11.00;;;2.47;;
36257;SDS011;22294;52.044;4.582;2022-11-06T07:58:56;6.75;;;2.33;;
36257;SDS011;22294;52.044;4.582;2022-11-06T08:01:22;10.18;;;2.25;;
36257;SDS011;22294;52.044;4.582;2022-11-06T08:03:47;6.93;;;2.05;;
36257;SDS011;22294;52.044;4.582;2022-11-06T08:06:13;9.45;;;2.15;;
36257;SDS011;22294;52.044;4.582;2022-11-06T08:08:38;10.98;;;2.60;;
36257;SDS011;22294;52.044;4.582;2022-11-06T08:11:04;8.05;;;2.50;;
36257;SDS011;22294;52.044;4.582;2022-11-06T08:13:31;8.82;;;2.53;;
36257;SDS011;22294;52.044;4.582;2022-11-06T08:16:06;12.68;;;2.72;;
36257;SDS011;22294;52.044;4.582;2022-11-06T08:18:33;9.82;;;2.22;;
36257;SDS011;22294;52.044;4.582;2022-11-06T08:20:59;7.00;;;2.13;;
36257;SDS011;22294;52.044;4.582;2022-11-06T08:23:25;8.32;;;2.58;;
36257;SDS011;22294;52.044;4.582;2022-11-06T08:25:54;5.75;;;2.42;;
36257;SDS011;22294;52.044;4.582;2022-11-06T08:28:21;8.98;;;2.28;;
36257;SDS011;22294;52.044;4.582;2022-11-06T08:30:47;7.22;;;2.10;;
36257;SDS011;22294;52.044;4.582;2022-11-06T08:33:12;8.18;;;2.50;;
36257;SDS011;22294;52.044;4.582;2022-11-06T08:35:37;9.18;;;2.40;;
36257;SDS011;22294;52.044;4.582;2022-11-06T08:38:03;9.63;;;2.60;;
36257;SDS011;22294;52.044;4.582;2022-11-06T08:40:28;6.95;;;2.00;;
36257;SDS011;22294;52.044;4.582;2022-11-06T08:43:01;8.07;;;2.10;;
36257;SDS011;22294;52.044;4.582;2022-11-06T08:45:28;11.13;;;2.40;;
36257;SDS011;22294;52.044;4.582;2022-11-06T08:47:53;11.18;;;2.92;;
36257;SDS011;22294;52.044;4.582;2022-11-06T08:50:19;9.52;;;2.85;;
36257;SDS011;22294;52.044;4.582;2022-11-06T08:52:44;9.40;;;2.75;;
36257;SDS011;22294;52.044;4.582;2022-11-06T08:55:09;7.63;;;2.30;;
36257;SDS011;22294;52.044;4.582;2022-11-06T08:57:35;4.53;;;2.25;;
36257;SDS011;22294;52.044;4.582;2022-11-06T09:00:00;7.10;;;2.58;;
36257;SDS011;22294;52.044;4.582;2022-11-06T09:02:25;7.60;;;2.13;;
36257;SDS011;22294;52.044;4.582;2022-11-06T09:04:51;8.75;;;2.25;;
36257;SDS011;22294;52.044;4.582;2022-11-06T09:07:16;6.85;;;2.63;;
36257;SDS011;22294;52.044;4.582;2022-11-06T09:09:41;11.98;;;2.40;;
36257;SDS011;22294;52.044;4.582;2022-11-06T09:12:07;9.60;;;2.45;;
36257;SDS011;22294;52.044;4.582;2022-11-06T09:14:32;7.95;;;2.38;;
36257;SDS011;22294;52.044;4.582;2022-11-06T09:16:58;8.27;;;2.35;;
36257;SDS011;22294;52.044;4.582;2022-11-06T09:19:24;12.13;;;2.53;;
36257;SDS011;22294;52.044;4.582;2022-11-06T09:21:49;7.03;;;2.50;;
36257;SDS011;22294;52.044;4.582;2022-11-06T09:24:14;6.22;;;2.35;;
36257;SDS011;22294;52.044;4.582;2022-11-06T09:26:40;8.07;;;2.72;;
36257;SDS011;22294;52.044;4.582;2022-11-06T09:29:05;8.30;;;2.70;;
36257;SDS011;22294;52.044;4.582;2022-11-06T09:31:30;8.68;;;2.50;;
36257;SDS011;22294;52.044;4.582;2022-11-06T09:33:56;8.60;;;2.25;;
36257;SDS011;22294;52.044;4.582;2022-11-06T09:36:21;7.40;;;2.60;;
36257;SDS011;22294;52.044;4.582;2022-11-06T09:38:47;11.10;;;2.70;;
36257;SDS011;22294;52.044;4.582;2022-11-06T09:41:22;7.13;;;1.85;;
36257;SDS011;22294;52.044;4.582;2022-11-06T09:46:29;8.02;;;2.70;;
36257;SDS011;22294;52.044;4.582;2022-11-06T09:51:44;9.98;;;2.38;;
36257;SDS011;22294;52.044;4.582;2022-11-06T09:54:19;9.10;;;2.60;;
36257;SDS011;22294;52.044;4.582;2022-11-06T09:57:50;12.15;;;2.67;;
36257;SDS011;22294;52.044;4.582;2022-11-06T09:59:59;6.05;;;2.38;;
36257;SDS011;22294;52.044;4.582;2022-11-06T10:07:35;8.85;;;2.38;;
36257;SDS011;22294;52.044;4.582;2022-11-06T10:10:04;10.40;;;2.15;;
36257;SDS011;22294;52.044;4.582;2022-11-06T10:12:34;8.15;;;1.92;;
36257;SDS011;22294;52.044;4.582;2022-11-06T10:18:11;6.18;;;2.17;;
36257;SDS011;22294;52.044;4.582;2022-11-06T10:20:47;6.15;;;2.22;;
36257;SDS011;22294;52.044;4.582;2022-11-06T10:26:12;8.60;;;2.00;;
36257;SDS011;22294;52.044;4.582;2022-11-06T10:28:45;7.75;;;2.20;;
36257;SDS011;22294;52.044;4.582;2022-11-06T10:34:24;8.05;;;2.55;;
36257;SDS011;22294;52.044;4.582;2022-11-06T10:37:09;4.18;;;1.90;;
36257;SDS011;22294;52.044;4.582;2022-11-06T10:39:37;6.22;;;1.85;;
36257;SDS011;22294;52.044;4.582;2022-11-06T10:44:37;7.82;;;2.28;;
36257;SDS011;22294;52.044;4.582;2022-11-06T10:47:14;16.05;;;3.03;;
36257;SDS011;22294;52.044;4.582;2022-11-06T10:49:44;8.70;;;2.28;;
36257;SDS011;22294;52.044;4.582;2022-11-06T10:52:21;6.53;;;2.72;;
36257;SDS011;22294;52.044;4.582;2022-11-06T10:57:51;8.75;;;1.95;;
36257;SDS011;22294;52.044;4.582;2022-11-06T11:00:22;9.23;;;2.40;;
36257;SDS011;22294;52.044;4.582;2022-11-06T11:02:51;8.43;;;2.47;;
36257;SDS011;22294;52.044;4.582;2022-11-06T11:05:20;8.85;;;2.03;;
36257;SDS011;22294;52.044;4.582;2022-11-06T11:07:48;9.10;;;2.30;;
36257;SDS011;22294;52.044;4.582;2022-11-06T11:10:24;7.97;;;2.20;;
36257;SDS011;22294;52.044;4.582;2022-11-06T11:12:55;7.35;;;2.30;;
36257;SDS011;22294;52.044;4.582;2022-11-06T11:15:22;7.82;;;2.38;;
36257;SDS011;22294;52.044;4.582;2022-11-06T11:20:34;7.53;;;1.92;;
36257;SDS011;22294;52.044;4.582;2022-11-06T11:23:04;8.88;;;2.08;;
36257;SDS011;22294;52.044;4.582;2022-11-06T11:25:36;8.55;;;2.38;;
36257;SDS011;22294;52.044;4.582;2022-11-06T11:28:01;9.25;;;1.75;;
36257;SDS011;22294;52.044;4.582;2022-11-06T11:30:27;8.65;;;2.15;;
36257;SDS011;22294;52.044;4.582;2022-11-06T11:32:55;5.93;;;1.70;;
36257;SDS011;22294;52.044;4.582;2022-11-06T11:35:24;8.80;;;2.22;;
36257;SDS011;22294;52.044;4.582;2022-11-06T11:37:52;8.85;;;1.85;;
36257;SDS011;22294;52.044;4.582;2022-11-06T11:45:43;13.95;;;2.10;;
36257;SDS011;22294;52.044;4.582;2022-11-06T11:48:25;6.07;;;2.13;;
36257;SDS011;22294;52.044;4.582;2022-11-06T11:50:50;6.93;;;2.25;;
36257;SDS011;22294;52.044;4.582;2022-11-06T11:53:19;7.28;;;2.47;;
36257;SDS011;22294;52.044;4.582;2022-11-06T11:55:49;7.97;;;2.72;;
36257;SDS011;22294;52.044;4.582;2022-11-06T12:00:51;11.68;;;2.30;;
36257;SDS011;22294;52.044;4.582;2022-11-06T12:03:19;10.75;;;2.22;;
36257;SDS011;22294;52.044;4.582;2022-11-06T12:05:49;7.33;;;1.93;;
36257;SDS011;22294;52.044;4.582;2022-11-06T12:08:23;8.07;;;2.63;;
36257;SDS011;22294;52.044;4.582;2022-11-06T12:10:49;6.20;;;2.03;;
36257;SDS011;22294;52.044;4.582;2022-11-06T12:13:16;8.70;;;2.25;;
36257;SDS011;22294;52.044;4.582;2022-11-06T12:18:30;7.63;;;2.00;;
36257;SDS011;22294;52.044;4.582;2022-11-06T12:23:37;7.45;;;2.13;;
36257;SDS011;22294;52.044;4.582;2022-11-06T12:26:22;10.75;;;1.90;;
36257;SDS011;22294;52.044;4.582;2022-11-06T12:28:55;7.65;;;1.77;;
36257;SDS011;22294;52.044;4.582;2022-11-06T12:31:34;8.48;;;2.00;;
36257;SDS011;22294;52.044;4.582;2022-11-06T12:34:04;7.13;;;1.70;;
36257;SDS011;22294;52.044;4.582;2022-11-06T12:36:35;8.65;;;2.20;;
36257;SDS011;22294;52.044;4.582;2022-11-06T12:39:11;5.65;;;1.85;;
36257;SDS011;22294;52.044;4.582;2022-11-06T12:41:41;7.45;;;2.10;;
36257;SDS011;22294;52.044;4.582;2022-11-06T12:57:37;6.30;;;1.88;;
36257;SDS011;22294;52.044;4.582;2022-11-06T13:00:21;6.72;;;1.63;;
36257;SDS011;22294;52.044;4.582;2022-11-06T13:05:54;4.22;;;2.33;;
36257;SDS011;22294;52.044;4.582;2022-11-06T13:11:16;9.25;;;2.20;;
36257;SDS011;22294;52.044;4.582;2022-11-06T13:22:06;7.88;;;2.40;;
36257;SDS011;22294;52.044;4.582;2022-11-06T13:24:35;9.30;;;2.00;;
36257;SDS011;22294;52.044;4.582;2022-11-06T13:29:42;6.35;;;2.80;;
36257;SDS011;22294;52.044;4.582;2022-11-06T13:32:10;4.82;;;2.50;;
36257;SDS011;22294;52.044;4.582;2022-11-06T13:34:41;9.75;;;2.90;;
36257;SDS011;22294;52.044;4.582;2022-11-06T13:42:29;8.20;;;2.85;;
36257;SDS011;22294;52.044;4.582;2022-11-06T13:45:00;8.90;;;2.67;;
36257;SDS011;22294;52.044;4.582;2022-11-06T13:47:28;6.20;;;2.40;;
36257;SDS011;22294;52.044;4.582;2022-11-06T14:06:02;7.23;;;2.00;;
36257;SDS011;22294;52.044;4.582;2022-11-06T14:11:00;5.70;;;2.22;;
36257;SDS011;22294;52.044;4.582;2022-11-06T14:13:32;5.43;;;1.90;;
36257;SDS011;22294;52.044;4.582;2022-11-06T14:16:00;9.20;;;2.08;;
36257;SDS011;22294;52.044;4.582;2022-11-06T14:18:28;7.15;;;2.15;;
36257;SDS011;22294;52.044;4.582;2022-11-06T14:23:51;8.15;;;2.22;;
36257;SDS011;22294;52.044;4.582;2022-11-06T14:26:35;7.75;;;1.88;;
36257;SDS011;22294;52.044;4.582;2022-11-06T14:32:10;6.43;;;1.92;;
36257;SDS011;22294;52.044;4.582;2022-11-06T14:34:37;5.80;;;2.25;;
36257;SDS011;22294;52.044;4.582;2022-11-06T14:45:06;4.32;;;1.65;;
36257;SDS011;22294;52.044;4.582;2022-11-06T14:47:37;5.18;;;1.60;;
36257;SDS011;22294;52.044;4.582;2022-11-06T14:50:06;5.43;;;1.77;;
36257;SDS011;22294;52.044;4.582;2022-11-06T14:52:48;5.93;;;2.00;;
36257;SDS011;22294;52.044;4.582;2022-11-06T14:55:29;5.75;;;2.35;;
36257;SDS011;22294;52.044;4.582;2022-11-06T14:58:12;8.70;;;2.05;;
36257;SDS011;22294;52.044;4.582;2022-11-06T15:03:16;3.03;;;1.40;;
36257;SDS011;22294;52.044;4.582;2022-11-06T15:05:46;5.07;;;1.88;;
36257;SDS011;22294;52.044;4.582;2022-11-06T15:08:11;4.07;;;1.60;;
36257;SDS011;22294;52.044;4.582;2022-11-06T15:11:09;6.03;;;1.88;;
36257;SDS011;22294;52.044;4.582;2022-11-06T15:13:54;5.57;;;1.95;;
36257;SDS011;22294;52.044;4.582;2022-11-06T15:16:44;4.60;;;1.83;;
36257;SDS011;22294;52.044;4.582;2022-11-06T15:19:19;4.05;;;1.50;;
36257;SDS011;22294;52.044;4.582;2022-11-06T15:21:48;5.43;;;2.00;;
36257;SDS011;22294;52.044;4.582;2022-11-06T15:24:23;3.88;;;1.67;;
36257;SDS011;22294;52.044;4.582;2022-11-06T15:26:53;4.68;;;1.70;;
36257;SDS011;22294;52.044;4.582;2022-11-06T15:29:25;5.50;;;1.60;;
36257;SDS011;22294;52.044;4.582;2022-11-06T15:32:09;5.43;;;1.75;;
36257;SDS011;22294;52.044;4.582;2022-11-06T15:34:39;6.03;;;1.80;;
36257;SDS011;22294;52.044;4.582;2022-11-06T15:37:17;4.05;;;1.90;;
36257;SDS011;22294;52.044;4.582;2022-11-06T15:39:51;5.57;;;1.92;;
36257;SDS011;22294;52.044;4.582;2022-11-06T15:42:21;6.63;;;2.55;;
36257;SDS011;22294;52.044;4.582;2022-11-06T15:44:52;5.85;;;1.73;;
36257;SDS011;22294;52.044;4.582;2022-11-06T15:47:31;3.42;;;1.67;;
36257;SDS011;22294;52.044;4.582;2022-11-06T15:50:16;4.95;;;1.95;;
36257;SDS011;22294;52.044;4.582;2022-11-06T15:52:47;10.05;;;2.20;;
36257;SDS011;22294;52.044;4.582;2022-11-06T15:57:39;4.10;;;1.98;;
36257;SDS011;22294;52.044;4.582;2022-11-06T16:00:08;7.40;;;2.25;;
36257;SDS011;22294;52.044;4.582;2022-11-06T16:05:13;7.55;;;2.30;;
36257;SDS011;22294;52.044;4.582;2022-11-06T16:07:40;4.50;;;1.80;;
36257;SDS011;22294;52.044;4.582;2022-11-06T16:10:06;6.22;;;1.90;;
36257;SDS011;22294;52.044;4.582;2022-11-06T16:12:37;6.05;;;1.70;;
36257;SDS011;22294;52.044;4.582;2022-11-06T16:15:02;3.55;;;1.85;;
36257;SDS011;22294;52.044;4.582;2022-11-06T16:17:28;5.78;;;2.03;;
36257;SDS011;22294;52.044;4.582;2022-11-06T16:19:54;3.40;;;2.08;;
36257;SDS011;22294;52.044;4.582;2022-11-06T16:24:54;5.75;;;1.77;;
36257;SDS011;22294;52.044;4.582;2022-11-06T16:27:33;7.07;;;2.38;;
36257;SDS011;22294;52.044;4.582;2022-11-06T16:30:00;5.35;;;2.05;;
36257;SDS011;22294;52.044;4.582;2022-11-06T16:32:37;4.95;;;2.00;;
36257;SDS011;22294;52.044;4.582;2022-11-06T16:35:47;4.88;;;2.13;;
36257;SDS011;22294;52.044;4.582;2022-11-06T16:38:04;5.82;;;2.30;;
36257;SDS011;22294;52.044;4.582;2022-11-06T16:40:51;4.25;;;2.08;;
36257;SDS011;22294;52.044;4.582;2022-11-06T16:43:18;6.93;;;2.22;;
36257;SDS011;22294;52.044;4.582;2022-11-06T16:45:52;5.25;;;1.98;;
36257;SDS011;22294;52.044;4.582;2022-11-06T16:50:53;5.82;;;2.20;;
36257;SDS011;22294;52.044;4.582;2022-11-06T16:55:53;5.00;;;2.38;;
36257;SDS011;22294;52.044;4.582;2022-11-06T16:58:23;6.57;;;2.67;;
36257;SDS011;22294;52.044;4.582;2022-11-06T17:00:55;6.25;;;2.78;;
36257;SDS011;22294;52.044;4.582;2022-11-06T17:03:53;5.68;;;2.05;;
36257;SDS011;22294;52.044;4.582;2022-11-06T17:06:21;4.90;;;2.00;;
36257;SDS011;22294;52.044;4.582;2022-11-06T17:08:55;4.95;;;2.65;;
36257;SDS011;22294;52.044;4.582;2022-11-06T17:11:24;6.00;;;3.15;;
36257;SDS011;22294;52.044;4.582;2022-11-06T17:13:49;6.75;;;2.80;;
36257;SDS011;22294;52.044;4.582;2022-11-06T17:16:22;6.03;;;2.88;;
36257;SDS011;22294;52.044;4.582;2022-11-06T17:19:25;4.97;;;3.13;;
36257;SDS011;22294;52.044;4.582;2022-11-06T17:22:22;4.78;;;2.80;;
36257;SDS011;22294;52.044;4.582;2022-11-06T17:25:13;8.80;;;2.83;;
36257;SDS011;22294;52.044;4.582;2022-11-06T17:27:38;10.68;;;3.00;;
36257;SDS011;22294;52.044;4.582;2022-11-06T17:30:04;6.43;;;2.90;;
36257;SDS011;22294;52.044;4.582;2022-11-06T17:32:31;5.07;;;2.90;;
36257;SDS011;22294;52.044;4.582;2022-11-06T17:34:57;6.03;;;3.20;;
36257;SDS011;22294;52.044;4.582;2022-11-06T17:37:22;5.43;;;3.13;;